Time;durP1;ratioP1;P1;durP2;ratioP2;P2;SDS_P1;SDS_P2;PMS_P1;PMS_P2;Temp;Humidity;BMP_temperature;BMP_pressure;BME280_temperature;BME280_humidity;BME280_pressure;Samples;Min_cycle;Max_cycle;Signal;HPM_P1;HPM_P2
2023/07/12 00:01:25;;;;;;;2.70;1.80;;;29.80;46.70;;;;;;4991177;28;20857;-73
2023/07/12 00:03:54;;;;;;;2.50;1.90;;;29.80;46.90;;;;;;4986671;28;20990;-73
2023/07/12 00:06:33;;;;;;;2.17;1.97;;;29.80;47.00;;;;;;4997006;28;20453;-73
2023/07/12 00:09:02;;;;;;;2.30;2.10;;;29.80;48.10;;;;;;4988919;28;20454;-73
2023/07/12 00:11:32;;;;;;;2.40;2.20;;;29.80;46.80;;;;;;4994770;28;20449;-73
2023/07/12 00:14:00;;;;;;;2.03;1.83;;;29.70;46.90;;;;;;4989544;28;20494;-73
2023/07/12 00:16:31;;;;;;;2.43;1.87;;;29.80;47.10;;;;;;4981958;28;20470;-73
2023/07/12 00:18:59;;;;;;;2.17;1.70;;;29.80;47.10;;;;;;4987738;28;20813;-73
2023/07/12 00:21:29;;;;;;;1.90;1.70;;;29.80;48.30;;;;;;5004446;28;20474;-72
2023/07/12 00:24:00;;;;;;;2.33;1.87;;;29.80;47.00;;;;;;4988896;28;20723;-73
2023/07/12 00:26:32;;;;;;;1.67;1.57;;;29.80;47.20;;;;;;4992142;28;20451;-73
2023/07/12 00:29:03;;;;;;;2.03;1.83;;;29.80;47.20;;;;;;4989465;28;20961;-73
2023/07/12 00:31:33;;;;;;;2.70;1.87;;;29.80;47.30;;;;;;4993393;28;20458;-73
2023/07/12 00:34:04;;;;;;;2.73;2.53;;;29.80;47.20;;;;;;4986064;28;20561;-73
2023/07/12 00:36:35;;;;;;;1.50;1.40;;;29.80;46.90;;;;;;4988292;28;21216;-73
2023/07/12 00:39:06;;;;;;;1.90;1.50;;;29.70;46.80;;;;;;5003482;28;20592;-73
2023/07/12 00:42:02;;;;;;;2.00;1.60;;;29.80;46.80;;;;;;4982762;28;20449;-73
2023/07/12 00:44:36;;;;;;;2.07;1.87;;;29.80;46.70;;;;;;4989065;28;20587;-73
2023/07/12 00:47:05;;;;;;;1.67;1.50;;;29.70;46.50;;;;;;4988621;28;20477;-72
2023/07/12 00:49:34;;;;;;;2.20;1.50;;;29.80;46.60;;;;;;4994268;28;20437;-73
2023/07/12 00:52:09;;;;;;;1.63;1.50;;;29.80;46.80;;;;;;4977881;28;20454;-73
2023/07/12 00:54:51;;;;;;;1.97;1.80;;;29.80;47.10;;;;;;4985354;28;20817;-72
2023/07/12 00:57:21;;;;;;;1.67;1.57;;;29.80;47.20;;;;;;4985817;28;20818;-73
2023/07/12 00:59:51;;;;;;;2.10;1.90;;;29.70;47.20;;;;;;4994709;28;20450;-73
2023/07/12 01:02:23;;;;;;;4.20;2.20;;;29.80;47.40;;;;;;4987027;28;20487;-73
2023/07/12 01:04:55;;;;;;;2.50;1.70;;;29.70;47.20;;;;;;5010751;28;20446;-74
2023/07/12 01:07:25;;;;;;;2.40;1.80;;;29.80;47.50;;;;;;4998279;28;20494;-74
2023/07/12 01:09:53;;;;;;;1.90;1.63;;;29.70;47.60;;;;;;4985372;28;20450;-74
2023/07/12 01:12:23;;;;;;;2.30;1.80;;;29.70;47.60;;;;;;4980495;28;20959;-73
2023/07/12 01:14:52;;;;;;;2.80;2.00;;;29.70;47.60;;;;;;4999126;28;20799;-74
2023/07/12 01:17:23;;;;;;;2.53;1.80;;;29.70;47.60;;;;;;4977142;28;20481;-74
2023/07/12 01:19:51;;;;;;;3.83;1.40;;;29.70;47.80;;;;;;4973987;28;20514;-74
2023/07/12 01:22:21;;;;;;;1.70;1.60;;;29.70;48.10;;;;;;4980584;28;20466;-73
2023/07/12 01:24:49;;;;;;;2.87;1.90;;;29.70;47.90;;;;;;4981427;28;20458;-74
2023/07/12 01:27:23;;;;;;;2.87;1.80;;;29.70;47.90;;;;;;4968973;28;20506;-74
2023/07/12 01:29:52;;;;;;;2.30;2.10;;;29.70;47.80;;;;;;4973978;28;20458;-73
2023/07/12 01:32:20;;;;;;;1.80;1.70;;;29.70;47.90;;;;;;4975857;28;20473;-73
2023/07/12 01:34:49;;;;;;;3.90;1.87;;;29.70;47.90;;;;;;4990359;28;20450;-74
2023/07/12 01:37:18;;;;;;;2.33;1.73;;;29.70;48.00;;;;;;4999334;28;20528;-74
2023/07/12 01:39:47;;;;;;;1.90;1.70;;;29.70;48.10;;;;;;4998452;28;20484;-72
2023/07/12 01:42:16;;;;;;;2.57;1.70;;;29.70;48.00;;;;;;5001540;28;20497;-74
2023/07/12 01:44:44;;;;;;;2.23;2.00;;;29.70;48.10;;;;;;4994449;28;20443;-73
2023/07/12 01:47:13;;;;;;;2.03;1.87;;;29.70;48.00;;;;;;5013995;28;20461;-74
2023/07/12 01:49:41;;;;;;;1.90;1.70;;;29.70;48.20;;;;;;4994714;28;20453;-73
2023/07/12 01:52:10;;;;;;;2.20;1.90;;;29.70;48.10;;;;;;4991016;28;20484;-73
2023/07/12 01:54:41;;;;;;;1.57;1.47;;;29.70;48.20;;;;;;4996616;28;20442;-73
2023/07/12 01:57:11;;;;;;;2.00;1.90;;;29.70;48.70;;;;;;4997826;28;20478;-73
2023/07/12 01:59:40;;;;;;;1.70;1.50;;;29.70;48.20;;;;;;5006389;28;20554;-73
2023/07/12 02:02:09;;;;;;;1.90;1.40;;;29.70;48.30;;;;;;5022011;22;20454;-75
2023/07/12 02:04:38;;;;;;;2.47;1.60;;;29.60;48.30;;;;;;5005461;28;20477;-75
2023/07/12 02:07:07;;;;;;;2.80;1.93;;;29.60;48.30;;;;;;5030903;28;20452;-75
2023/07/12 02:09:40;;;;;;;2.77;2.00;;;29.60;48.30;;;;;;5008964;28;20441;-75
2023/07/12 02:12:11;;;;;;;1.77;1.67;;;29.60;48.30;;;;;;5034348;28;20498;-75
2023/07/12 02:14:39;;;;;;;2.80;1.60;;;29.70;48.40;;;;;;5015581;28;20453;-75
2023/07/12 02:17:07;;;;;;;1.67;1.57;;;29.60;48.40;;;;;;5006692;28;20465;-75
2023/07/12 02:19:36;;;;;;;1.70;1.60;;;29.60;48.50;;;;;;5000253;28;20558;-75
2023/07/12 02:22:05;;;;;;;1.90;1.80;;;29.60;48.30;;;;;;5020989;28;20502;-75
2023/07/12 02:24:33;;;;;;;2.73;1.63;;;29.60;48.50;;;;;;5000063;28;20503;-75
2023/07/12 02:27:01;;;;;;;1.87;1.50;;;29.60;48.60;;;;;;5002818;28;20443;-75
2023/07/12 02:29:31;;;;;;;1.53;1.43;;;29.60;48.60;;;;;;5010288;28;20487;-75
2023/07/12 02:32:00;;;;;;;2.80;1.70;;;29.60;48.60;;;;;;5013465;28;20535;-75
2023/07/12 02:34:28;;;;;;;1.80;1.70;;;29.60;48.60;;;;;;4999257;28;20477;-75
2023/07/12 02:36:57;;;;;;;2.20;1.57;;;29.60;48.50;;;;;;5012141;28;20484;-75
2023/07/12 02:39:25;;;;;;;2.67;1.60;;;29.60;49.10;;;;;;5004117;28;20530;-75
2023/07/12 02:41:53;;;;;;;2.10;1.40;;;29.60;48.30;;;;;;5001408;28;20876;-75
2023/07/12 02:44:22;;;;;;;2.53;1.80;;;29.60;48.40;;;;;;5005266;28;20499;-75
2023/07/12 02:46:52;;;;;;;1.53;1.43;;;29.50;48.50;;;;;;4999160;28;20500;-75
2023/07/12 02:49:21;;;;;;;2.23;1.80;;;29.50;48.30;;;;;;5005530;28;20452;-75
2023/07/12 02:51:49;;;;;;;1.60;1.50;;;29.50;48.20;;;;;;5001047;28;20500;-75
2023/07/12 02:54:17;;;;;;;2.00;1.60;;;29.50;48.30;;;;;;5004237;28;20464;-75
2023/07/12 02:56:46;;;;;;;2.87;1.50;;;29.50;48.40;;;;;;5008278;28;20475;-75
2023/07/12 02:59:14;;;;;;;2.17;1.67;;;29.50;48.30;;;;;;4998113;28;20441;-75
2023/07/12 03:01:42;;;;;;;2.60;1.70;;;29.50;48.30;;;;;;5003120;28;20457;-75
2023/07/12 03:04:12;;;;;;;1.77;1.67;;;29.50;48.30;;;;;;5001570;28;20479;-75
2023/07/12 03:06:41;;;;;;;2.87;2.00;;;29.50;48.00;;;;;;5006587;28;21010;-74
2023/07/12 03:09:09;;;;;;;2.70;1.40;;;29.50;48.10;;;;;;5004523;28;20456;-75
2023/07/12 03:11:38;;;;;;;2.20;1.80;;;29.50;48.10;;;;;;5008512;28;20438;-75
2023/07/12 03:14:07;;;;;;;3.03;1.50;;;29.40;48.20;;;;;;5013835;28;20453;-75
2023/07/12 03:16:35;;;;;;;3.50;1.77;;;29.40;48.30;;;;;;5004268;28;20441;-75
2023/07/12 03:19:04;;;;;;;1.93;1.43;;;29.40;48.20;;;;;;5008456;28;20950;-75
2023/07/12 03:21:34;;;;;;;1.70;1.30;;;29.40;48.00;;;;;;5022578;28;20453;-75
2023/07/12 03:24:02;;;;;;;4.60;1.70;;;29.40;48.00;;;;;;5008126;28;20479;-75
2023/07/12 03:26:31;;;;;;;1.60;1.40;;;29.40;47.90;;;;;;5009616;28;20539;-74
2023/07/12 03:28:59;;;;;;;1.80;1.17;;;29.40;48.00;;;;;;5014074;28;21131;-74
2023/07/12 03:31:29;;;;;;;2.17;1.70;;;29.40;47.80;;;;;;5007979;28;20437;-75
2023/07/12 03:33:59;;;;;;;1.50;1.30;;;29.40;47.30;;;;;;5002924;28;20973;-75
2023/07/12 03:36:29;;;;;;;1.60;1.43;;;29.40;47.50;;;;;;5007017;28;20457;-75
2023/07/12 03:39:00;;;;;;;3.30;1.27;;;29.40;47.70;;;;;;5000310;28;20480;-76
2023/07/12 03:41:29;;;;;;;2.00;1.63;;;29.40;47.90;;;;;;5009328;28;20491;-75
2023/07/12 03:43:57;;;;;;;2.00;1.20;;;29.40;47.90;;;;;;5014077;28;20470;-75
2023/07/12 03:46:25;;;;;;;1.50;1.40;;;29.40;47.80;;;;;;5004928;28;20634;-75
2023/07/12 03:48:54;;;;;;;2.50;1.70;;;29.40;47.80;;;;;;5013193;28;20433;-75
2023/07/12 03:51:23;;;;;;;1.77;1.47;;;29.40;47.90;;;;;;5007915;28;20445;-75
2023/07/12 03:53:52;;;;;;;2.00;1.40;;;29.40;47.90;;;;;;4998745;28;20834;-75
2023/07/12 03:56:21;;;;;;;1.60;1.50;;;29.40;48.00;;;;;;5004846;28;20457;-75
2023/07/12 03:58:50;;;;;;;1.37;1.27;;;29.40;47.60;;;;;;5012384;28;20476;-75
2023/07/12 04:01:19;;;;;;;1.40;1.10;;;29.40;47.70;;;;;;5003545;28;20809;-75
2023/07/12 04:03:47;;;;;;;1.77;1.67;;;29.40;47.60;;;;;;4993442;28;20482;-75
2023/07/12 04:06:16;;;;;;;2.77;1.53;;;29.40;47.80;;;;;;5028419;28;20448;-75
2023/07/12 04:08:44;;;;;;;1.77;1.07;;;29.30;47.80;;;;;;5008691;28;20487;-75
2023/07/12 04:11:27;;;;;;;1.67;1.40;;;29.30;47.60;;;;;;5027401;28;20814;-75
2023/07/12 04:13:55;;;;;;;2.20;1.83;;;29.30;47.60;;;;;;5011608;28;20472;-75
2023/07/12 04:16:25;;;;;;;1.40;1.20;;;29.30;47.70;;;;;;5004882;28;20453;-75
2023/07/12 04:18:54;;;;;;;1.90;1.73;;;29.30;47.80;;;;;;4998215;28;20484;-75
2023/07/12 04:21:23;;;;;;;5.17;1.37;;;29.30;47.80;;;;;;5008236;28;20431;-75
2023/07/12 04:23:52;;;;;;;1.90;1.40;;;29.30;47.70;;;;;;5011861;28;20460;-75
2023/07/12 04:26:21;;;;;;;1.53;1.23;;;29.30;47.80;;;;;;5012664;28;20442;-75
2023/07/12 04:28:53;;;;;;;2.40;1.23;;;29.30;47.70;;;;;;5006718;28;20540;-75
2023/07/12 04:31:23;;;;;;;1.73;1.13;;;29.30;47.80;;;;;;5007224;28;20472;-75
2023/07/12 04:33:52;;;;;;;2.10;1.47;;;29.30;47.80;;;;;;5013022;28;20480;-75
2023/07/12 04:36:20;;;;;;;1.47;1.37;;;29.30;47.60;;;;;;5004663;28;20504;-75
2023/07/12 04:38:49;;;;;;;1.20;1.10;;;29.30;47.80;;;;;;5003701;28;20469;-75
2023/07/12 04:41:17;;;;;;;1.40;1.20;;;29.30;47.70;;;;;;5014841;28;20970;-75
2023/07/12 04:43:45;;;;;;;1.93;1.40;;;29.30;47.70;;;;;;5001432;28;20461;-75
2023/07/12 04:46:15;;;;;;;2.20;1.20;;;29.20;47.60;;;;;;5003245;28;20460;-75
2023/07/12 04:48:44;;;;;;;1.10;1.00;;;29.30;47.70;;;;;;5006896;28;20453;-75
2023/07/12 04:51:12;;;;;;;2.30;1.53;;;29.30;47.70;;;;;;5014099;28;20439;-75
2023/07/12 04:53:42;;;;;;;1.37;1.17;;;29.20;47.40;;;;;;5002037;28;20489;-75
2023/07/12 04:56:10;;;;;;;1.87;1.23;;;29.20;47.70;;;;;;5015688;28;20832;-75
2023/07/12 04:58:39;;;;;;;1.40;1.03;;;29.20;47.20;;;;;;5006600;28;21016;-75
2023/07/12 05:01:07;;;;;;;1.83;1.50;;;29.20;47.60;;;;;;5008170;28;20484;-75
2023/07/12 05:03:38;;;;;;;1.73;1.20;;;29.10;47.40;;;;;;5004301;28;20506;-75
2023/07/12 05:06:06;;;;;;;1.27;1.00;;;29.10;47.60;;;;;;4987344;28;20508;-74
2023/07/12 05:08:40;;;;;;;1.40;1.20;;;29.10;47.50;;;;;;4991839;28;20461;-75
2023/07/12 05:11:09;;;;;;;1.50;1.40;;;29.20;47.50;;;;;;4986751;28;20459;-75
2023/07/12 05:13:37;;;;;;;1.37;1.07;;;29.20;47.50;;;;;;4980802;28;20478;-75
2023/07/12 05:16:06;;;;;;;1.17;0.87;;;29.10;47.70;;;;;;4987436;28;20448;-75
2023/07/12 05:18:34;;;;;;;1.93;1.37;;;29.20;47.80;;;;;;4991427;28;20474;-75
2023/07/12 05:21:04;;;;;;;1.50;1.23;;;29.10;47.70;;;;;;4987235;28;20450;-75
2023/07/12 05:23:36;;;;;;;1.80;1.33;;;29.10;47.70;;;;;;4985242;28;21127;-75
2023/07/12 05:26:04;;;;;;;2.40;1.63;;;29.10;47.80;;;;;;4989364;28;20454;-75
2023/07/12 05:28:33;;;;;;;1.37;1.27;;;29.10;47.50;;;;;;5001188;28;20459;-75
2023/07/12 05:31:06;;;;;;;1.53;1.40;;;29.10;47.60;;;;;;4962200;28;20454;-75
2023/07/12 05:33:35;;;;;;;1.80;1.60;;;29.10;47.60;;;;;;4984325;28;20482;-75
2023/07/12 05:36:08;;;;;;;1.90;1.77;;;29.10;47.70;;;;;;4984375;28;20453;-75
2023/07/12 05:38:37;;;;;;;1.60;1.50;;;29.10;47.70;;;;;;4979950;28;20548;-75
2023/07/12 05:41:05;;;;;;;1.70;1.33;;;29.10;47.80;;;;;;4978790;28;20821;-75
2023/07/12 05:43:34;;;;;;;1.83;1.67;;;29.10;47.90;;;;;;4982075;28;20478;-75
2023/07/12 05:46:04;;;;;;;1.97;1.60;;;29.10;47.80;;;;;;4978891;28;20454;-75
2023/07/12 05:48:33;;;;;;;1.57;1.47;;;29.10;47.90;;;;;;4978738;28;20475;-75
2023/07/12 05:51:04;;;;;;;1.53;1.40;;;29.10;47.80;;;;;;4993278;28;20453;-75
2023/07/12 05:53:33;;;;;;;1.70;1.43;;;29.10;48.00;;;;;;4979899;28;20479;-74
2023/07/12 05:56:04;;;;;;;1.60;1.50;;;29.00;47.90;;;;;;4981260;28;20461;-68
2023/07/12 05:58:34;;;;;;;1.77;1.63;;;29.00;47.90;;;;;;4983434;28;20469;-75
2023/07/12 06:01:03;;;;;;;1.90;1.40;;;29.00;47.80;;;;;;4988991;28;20488;-75
2023/07/12 06:03:33;;;;;;;1.50;1.40;;;29.00;47.60;;;;;;5003300;28;20609;-75
2023/07/12 06:06:06;;;;;;;2.10;1.90;;;29.00;47.80;;;;;;5014642;28;20448;-75
2023/07/12 06:08:36;;;;;;;2.40;1.33;;;29.00;47.90;;;;;;4958818;28;20474;-75
2023/07/12 06:11:04;;;;;;;2.03;1.40;;;29.00;47.60;;;;;;4974112;28;20458;-75
2023/07/12 06:13:33;;;;;;;1.00;0.90;;;29.00;47.70;;;;;;4979650;28;20466;-75
2023/07/12 06:16:03;;;;;;;2.00;1.40;;;29.00;47.60;;;;;;4983966;28;20449;-75
2023/07/12 06:18:31;;;;;;;1.97;1.50;;;29.00;47.50;;;;;;4984395;28;20483;-75
2023/07/12 06:21:01;;;;;;;1.23;1.07;;;29.00;47.80;;;;;;4987718;28;20445;-75
2023/07/12 06:23:30;;;;;;;1.50;1.20;;;29.00;47.80;;;;;;4985980;28;20565;-75
2023/07/12 06:26:00;;;;;;;1.60;1.50;;;29.00;47.60;;;;;;4980150;28;20950;-75
2023/07/12 06:28:29;;;;;;;1.33;1.20;;;29.00;47.70;;;;;;4988336;28;20466;-75
2023/07/12 06:30:57;;;;;;;2.07;1.30;;;29.00;47.70;;;;;;4989297;28;20576;-75
2023/07/12 06:33:26;;;;;;;2.30;1.70;;;28.90;47.50;;;;;;4989346;28;20474;-74
2023/07/12 06:35:56;;;;;;;1.53;1.37;;;28.90;47.40;;;;;;4988889;28;20466;-75
2023/07/12 06:38:25;;;;;;;1.60;1.30;;;28.90;47.30;;;;;;4985170;28;20529;-75
2023/07/12 06:40:55;;;;;;;2.23;1.30;;;28.90;47.40;;;;;;4990082;28;20876;-75
2023/07/12 06:43:24;;;;;;;1.67;1.37;;;28.90;47.40;;;;;;4984970;28;20490;-75
2023/07/12 06:45:55;;;;;;;2.23;1.30;;;28.90;47.40;;;;;;4986465;28;20447;-75
2023/07/12 06:48:24;;;;;;;2.10;1.70;;;28.90;47.20;;;;;;4979293;28;20471;-74
2023/07/12 06:50:54;;;;;;;2.80;1.50;;;28.90;47.40;;;;;;4991085;28;20423;-75
2023/07/12 06:53:22;;;;;;;1.00;0.90;;;28.90;47.00;;;;;;4984502;28;20489;-75
2023/07/12 06:55:51;;;;;;;1.90;1.57;;;28.90;47.30;;;;;;4990440;28;20441;-74
2023/07/12 06:58:19;;;;;;;2.40;1.30;;;28.90;47.30;;;;;;4988490;28;20462;-75
2023/07/12 07:00:49;;;;;;;1.73;1.43;;;28.90;47.20;;;;;;4986970;28;20466;-75
2023/07/12 07:03:18;;;;;;;1.50;1.30;;;28.90;47.30;;;;;;4981213;28;20466;-74
2023/07/12 07:05:48;;;;;;;2.13;1.70;;;28.90;47.20;;;;;;4982519;28;20529;-75
2023/07/12 07:08:19;;;;;;;1.60;1.20;;;28.90;47.00;;;;;;4988994;28;20943;-75
2023/07/12 07:10:51;;;;;;;1.53;1.10;;;28.90;47.20;;;;;;5004922;28;20431;-74
2023/07/12 07:13:21;;;;;;;1.50;1.20;;;28.90;47.20;;;;;;4985262;28;20485;-75
2023/07/12 07:15:52;;;;;;;1.23;1.13;;;28.90;47.20;;;;;;4981309;28;20946;-74
2023/07/12 07:18:22;;;;;;;1.80;1.27;;;28.90;47.10;;;;;;4982198;28;21020;-74
2023/07/12 07:20:52;;;;;;;1.63;1.40;;;28.90;47.30;;;;;;4985341;28;20650;-75
2023/07/12 07:23:21;;;;;;;1.40;1.30;;;28.90;46.90;;;;;;4985412;28;20580;-75
2023/07/12 07:25:49;;;;;;;1.77;1.40;;;28.90;46.70;;;;;;4987527;28;20453;-74
2023/07/12 07:28:20;;;;;;;1.10;0.97;;;28.90;46.70;;;;;;4979937;28;20473;-75
2023/07/12 07:30:56;;;;;;;1.40;1.10;;;28.80;46.40;;;;;;5009404;28;20436;-74
2023/07/12 07:33:25;;;;;;;2.00;1.50;;;28.90;46.20;;;;;;4979218;28;20468;-74
2023/07/12 07:35:55;;;;;;;1.20;1.00;;;28.80;46.20;;;;;;5009118;28;21030;-75
2023/07/12 07:38:27;;;;;;;2.60;1.63;;;28.80;45.70;;;;;;4986071;28;20549;-74
2023/07/12 07:40:56;;;;;;;1.60;1.20;;;28.90;45.80;;;;;;4985490;28;20501;-67
2023/07/12 07:43:24;;;;;;;1.70;1.50;;;28.90;47.00;;;;;;4990964;28;20468;-68
2023/07/12 07:45:54;;;;;;;2.13;1.60;;;28.80;45.50;;;;;;4983992;28;20442;-68
2023/07/12 07:48:23;;;;;;;1.67;1.30;;;28.80;45.60;;;;;;4983108;28;20992;-67
2023/07/12 07:50:52;;;;;;;2.13;1.30;;;28.80;46.00;;;;;;4982677;28;20477;-68
2023/07/12 07:53:21;;;;;;;1.40;1.17;;;28.80;46.10;;;;;;4984358;28;20484;-68
2023/07/12 07:55:50;;;;;;;1.63;0.93;;;28.80;46.30;;;;;;4981666;28;20493;-68
2023/07/12 07:58:19;;;;;;;2.33;1.20;;;28.80;46.70;;;;;;4987161;28;20524;-68
2023/07/12 08:00:48;;;;;;;1.63;1.27;;;28.80;45.50;;;;;;4999885;28;20848;-68
2023/07/12 08:03:17;;;;;;;2.23;1.10;;;28.80;45.70;;;;;;4978162;28;20484;-68
2023/07/12 08:05:47;;;;;;;1.73;1.10;;;28.80;45.10;;;;;;4980916;28;20840;-68
2023/07/12 08:08:16;;;;;;;1.47;1.37;;;28.80;45.40;;;;;;4980794;28;20478;-67
2023/07/12 08:10:44;;;;;;;2.23;1.40;;;28.80;45.30;;;;;;5001279;28;20941;-67
2023/07/12 08:13:13;;;;;;;1.63;1.10;;;28.80;45.90;;;;;;4989444;28;20467;-68
2023/07/12 08:15:43;;;;;;;1.53;1.10;;;28.80;45.70;;;;;;4988847;28;20461;-68
2023/07/12 08:18:12;;;;;;;1.50;1.00;;;28.80;45.90;;;;;;4988973;28;21119;-67
2023/07/12 08:20:42;;;;;;;1.43;1.17;;;28.80;45.80;;;;;;4998652;28;20541;-67
2023/07/12 08:23:11;;;;;;;1.40;1.10;;;28.80;46.00;;;;;;4988098;28;20513;-67
2023/07/12 08:25:40;;;;;;;1.07;0.87;;;28.80;46.00;;;;;;5014287;28;20960;-67
2023/07/12 08:28:08;;;;;;;1.30;1.10;;;28.80;45.90;;;;;;5007805;28;20493;-67
2023/07/12 08:30:37;;;;;;;2.73;1.43;;;28.80;46.00;;;;;;4993280;28;21030;-67
2023/07/12 08:33:06;;;;;;;1.63;1.23;;;28.70;45.80;;;;;;4991336;28;20535;-67
2023/07/12 08:35:34;;;;;;;1.93;1.37;;;28.70;46.10;;;;;;4990038;28;20540;-67
2023/07/12 08:38:18;;;;;;;1.00;0.90;;;28.70;46.10;;;;;;4983798;28;20502;-75
2023/07/12 08:40:50;;;;;;;1.53;1.10;;;28.70;45.50;;;;;;4989880;28;20491;-74
2023/07/12 08:43:21;;;;;;;1.70;1.40;;;28.70;44.90;;;;;;4984025;28;20516;-74
2023/07/12 08:45:52;;;;;;;1.87;1.60;;;28.70;44.70;;;;;;4984633;28;20445;-74
2023/07/12 08:48:23;;;;;;;1.97;1.77;;;28.70;45.60;;;;;;5000689;28;20528;-74
2023/07/12 08:50:51;;;;;;;1.27;1.10;;;28.70;44.50;;;;;;4982574;28;20934;-75
2023/07/12 08:53:25;;;;;;;1.73;0.90;;;28.70;44.80;;;;;;4979974;28;20848;-74
2023/07/12 08:55:55;;;;;;;1.40;1.00;;;28.70;44.40;;;;;;4984178;28;20495;-74
2023/07/12 08:58:27;;;;;;;2.40;0.97;;;28.70;44.60;;;;;;4980328;28;21011;-74
2023/07/12 09:01:02;;;;;;;1.10;0.93;;;28.70;44.60;;;;;;4992181;28;21044;-74
2023/07/12 09:03:31;;;;;;;2.60;1.37;;;28.70;44.80;;;;;;4997719;28;21023;-74
2023/07/12 09:06:00;;;;;;;1.60;1.30;;;28.70;44.40;;;;;;4987464;28;20544;-74
2023/07/12 09:08:34;;;;;;;1.53;1.37;;;28.70;44.20;;;;;;4993115;28;20497;-75
2023/07/12 09:11:03;;;;;;;1.27;1.07;;;28.70;44.70;;;;;;5006373;28;20465;-74
2023/07/12 09:13:37;;;;;;;1.60;1.23;;;28.70;44.50;;;;;;4985240;28;20884;-74
2023/07/12 09:16:23;;;;;;;2.17;1.13;;;28.70;45.00;;;;;;5001959;28;20457;-74
2023/07/12 09:18:54;;;;;;;1.90;1.30;;;28.60;44.60;;;;;;5000647;28;20477;-74
2023/07/12 09:21:26;;;;;;;2.33;1.33;;;28.60;44.30;;;;;;4997193;28;20998;-74
2023/07/12 09:24:03;;;;;;;1.23;1.00;;;28.60;43.70;;;;;;4994352;28;20468;-74
2023/07/12 09:26:33;;;;;;;1.60;1.10;;;28.60;44.30;;;;;;4998277;28;21054;-74
2023/07/12 09:29:07;;;;;;;1.83;1.03;;;28.60;44.30;;;;;;5000331;28;20476;-74
2023/07/12 09:31:40;;;;;;;1.87;1.00;;;28.60;43.90;;;;;;5000266;28;20532;-74
2023/07/12 09:34:20;;;;;;;1.47;1.07;;;28.60;44.10;;;;;;5011039;28;20477;-74
2023/07/12 09:36:56;;;;;;;3.63;1.27;;;28.60;44.10;;;;;;5003716;28;20453;-74
2023/07/12 09:39:26;;;;;;;1.60;1.10;;;28.60;43.90;;;;;;4997961;28;20460;-74
2023/07/12 09:41:57;;;;;;;1.47;1.07;;;28.60;43.80;;;;;;5001923;28;20564;-74
2023/07/12 09:44:27;;;;;;;1.47;1.20;;;28.60;44.00;;;;;;5004897;28;20995;-75
2023/07/12 09:47:01;;;;;;;1.43;1.10;;;28.60;44.00;;;;;;5008834;28;20454;-74
2023/07/12 09:49:40;;;;;;;2.40;1.17;;;28.60;43.90;;;;;;5001445;28;20456;-74
2023/07/12 09:52:15;;;;;;;1.60;1.40;;;28.60;44.20;;;;;;4999377;28;20473;-74
2023/07/12 09:54:52;;;;;;;1.50;0.87;;;28.60;43.90;;;;;;4997198;28;20445;-75
2023/07/12 09:57:36;;;;;;;1.40;1.30;;;28.60;43.70;;;;;;5008503;28;20543;-74
2023/07/12 10:00:19;;;;;;;3.30;1.20;;;28.60;44.30;;;;;;5001634;28;20449;-74
2023/07/12 10:03:04;;;;;;;1.70;1.30;;;28.60;43.90;;;;;;5002064;28;20501;-74
2023/07/12 10:05:35;;;;;;;2.97;1.00;;;28.60;44.00;;;;;;5013083;28;20556;-74
2023/07/12 10:08:09;;;;;;;2.37;1.00;;;28.60;44.10;;;;;;5002796;28;20480;-74
2023/07/12 10:10:46;;;;;;;1.37;1.10;;;28.60;44.30;;;;;;5004292;28;20501;-74
2023/07/12 10:13:27;;;;;;;1.80;0.80;;;28.60;44.50;;;;;;5007260;28;20611;-74
2023/07/12 10:15:56;;;;;;;1.90;1.40;;;28.60;44.10;;;;;;5008022;28;20472;-74
2023/07/12 10:18:30;;;;;;;1.67;1.07;;;28.60;44.00;;;;;;5006050;28;20469;-74
2023/07/12 10:21:00;;;;;;;1.73;1.30;;;28.60;43.80;;;;;;5008205;28;20473;-74
2023/07/12 10:23:32;;;;;;;1.40;1.17;;;28.60;43.90;;;;;;5000674;28;20485;-74
2023/07/12 10:26:06;;;;;;;3.70;1.30;;;28.50;43.90;;;;;;5013479;28;20457;-74
2023/07/12 10:28:43;;;;;;;2.43;1.30;;;28.50;43.80;;;;;;5005184;28;20481;-74
2023/07/12 10:31:31;;;;;;;1.30;1.00;;;28.50;43.60;;;;;;5007445;28;20965;-74
2023/07/12 10:34:14;;;;;;;2.77;1.57;;;28.50;44.10;;;;;;5000441;28;20826;-74
2023/07/12 10:36:44;;;;;;;2.00;1.20;;;28.50;44.20;;;;;;5005853;28;20460;-74
2023/07/12 10:39:13;;;;;;;2.10;1.10;;;28.50;43.90;;;;;;5001288;28;20560;-74
2023/07/12 10:41:48;;;;;;;2.60;1.17;;;28.50;43.80;;;;;;5008058;28;20480;-74
2023/07/12 10:44:21;;;;;;;0.87;0.80;;;28.50;43.30;;;;;;5003549;28;20858;-74
2023/07/12 10:46:55;;;;;;;3.60;1.30;;;28.50;43.60;;;;;;5005721;28;20539;-74
2023/07/12 10:49:45;;;;;;;2.20;1.00;;;28.50;43.80;;;;;;5004220;28;20454;-74
2023/07/12 10:52:29;;;;;;;1.63;1.10;;;28.50;44.50;;;;;;4997290;28;20473;-74
2023/07/12 10:55:17;;;;;;;1.70;1.20;;;28.50;44.40;;;;;;5007743;28;20447;-74
2023/07/12 10:57:49;;;;;;;1.10;1.00;;;28.50;44.00;;;;;;5008604;28;21202;-74
2023/07/12 11:00:28;;;;;;;2.00;1.10;;;28.50;43.90;;;;;;5013831;28;20791;-74
2023/07/12 11:03:14;;;;;;;3.63;1.00;;;28.50;44.10;;;;;;5020168;28;20472;-74
2023/07/12 11:05:46;;;;;;;1.27;1.10;;;28.50;44.20;;;;;;5009555;28;20565;-74
2023/07/12 11:08:38;;;;;;;1.47;0.97;;;28.50;43.60;;;;;;5002325;28;20477;-74
2023/07/12 11:11:29;;;;;;;1.30;1.20;;;28.50;43.20;;;;;;4999526;28;20461;-74
2023/07/12 11:14:20;;;;;;;1.27;1.10;;;28.50;43.40;;;;;;5009176;28;20971;-74
2023/07/12 11:16:53;;;;;;;1.33;1.00;;;28.50;43.30;;;;;;5010254;28;20440;-75
2023/07/12 11:19:37;;;;;;;2.70;1.00;;;28.50;43.80;;;;;;5005724;28;20449;-74
2023/07/12 11:22:13;;;;;;;1.47;0.80;;;28.50;43.60;;;;;;5004351;28;20469;-74
2023/07/12 11:24:52;;;;;;;2.87;1.33;;;28.50;42.70;;;;;;5006915;28;20436;-74
2023/07/12 11:27:39;;;;;;;2.10;1.17;;;28.50;43.20;;;;;;5007939;28;20476;-74
2023/07/12 11:30:23;;;;;;;1.77;0.83;;;28.50;42.70;;;;;;4999185;28;20892;-74
2023/07/12 11:32:58;;;;;;;1.63;0.97;;;28.50;43.20;;;;;;4993703;28;20498;-74
2023/07/12 11:35:42;;;;;;;1.90;1.03;;;28.50;43.20;;;;;;5003451;28;20854;-74
2023/07/12 11:38:18;;;;;;;3.93;1.07;;;28.50;43.50;;;;;;4998016;28;20989;-74
2023/07/12 11:40:51;;;;;;;2.20;1.30;;;28.50;43.30;;;;;;5004754;28;20976;-74
2023/07/12 11:43:34;;;;;;;3.23;0.93;;;28.50;43.30;;;;;;5002212;28;20507;-74
2023/07/12 11:46:13;;;;;;;1.83;0.93;;;28.50;43.40;;;;;;5001498;28;20457;-74
2023/07/12 11:48:45;;;;;;;3.80;1.00;;;28.50;43.50;;;;;;5004179;28;21004;-74
2023/07/12 11:51:20;;;;;;;1.70;1.10;;;28.50;43.20;;;;;;5003421;28;20504;-74
2023/07/12 11:53:53;;;;;;;1.10;0.90;;;28.50;43.70;;;;;;5004456;28;20476;-74
2023/07/12 11:56:21;;;;;;;2.70;1.43;;;28.50;43.70;;;;;;4993919;28;20954;-74
2023/07/12 11:58:50;;;;;;;0.90;0.70;;;28.50;42.90;;;;;;4999213;28;20465;-74
2023/07/12 12:01:21;;;;;;;1.73;0.90;;;28.50;43.40;;;;;;5006268;28;20484;-74
2023/07/12 12:03:51;;;;;;;1.90;1.10;;;28.50;42.60;;;;;;5005364;28;21551;-74
2023/07/12 12:06:21;;;;;;;2.10;1.17;;;28.50;43.20;;;;;;5005103;28;20826;-74
2023/07/12 12:08:54;;;;;;;1.83;1.10;;;28.50;43.10;;;;;;4998959;28;20784;-74
2023/07/12 12:11:27;;;;;;;2.30;1.37;;;28.50;43.20;;;;;;5000967;28;20459;-74
2023/07/12 12:13:57;;;;;;;2.07;1.30;;;28.50;43.30;;;;;;5006830;28;20472;-74
2023/07/12 12:16:30;;;;;;;1.87;1.00;;;28.50;42.80;;;;;;5007196;28;20450;-74
2023/07/12 12:19:01;;;;;;;2.30;0.97;;;28.50;42.90;;;;;;5006746;28;20464;-74
2023/07/12 12:21:30;;;;;;;1.60;1.10;;;28.50;43.20;;;;;;5003144;28;20453;-74
2023/07/12 12:24:15;;;;;;;1.30;1.10;;;28.50;43.00;;;;;;5002345;28;20510;-74
2023/07/12 12:26:45;;;;;;;1.53;1.00;;;28.50;41.80;;;;;;5005629;28;20529;-74
2023/07/12 12:29:17;;;;;;;1.87;1.10;;;28.50;42.60;;;;;;5007057;28;20464;-74
2023/07/12 12:31:56;;;;;;;2.80;1.30;;;28.50;42.00;;;;;;5015897;28;20504;-73
2023/07/12 12:34:28;;;;;;;1.60;0.90;;;28.50;41.80;;;;;;5003208;28;20445;-74
2023/07/12 12:37:01;;;;;;;2.80;1.00;;;28.50;42.70;;;;;;5000644;28;20472;-74
2023/07/12 12:39:30;;;;;;;2.27;1.23;;;28.50;43.30;;;;;;5004643;28;20451;-74
2023/07/12 12:42:00;;;;;;;1.80;1.00;;;28.50;42.70;;;;;;4995235;28;20480;-74
2023/07/12 12:44:30;;;;;;;2.13;1.27;;;28.50;42.80;;;;;;5018263;28;20465;-74
2023/07/12 12:47:02;;;;;;;3.23;1.30;;;28.50;42.40;;;;;;5006815;28;20467;-74
2023/07/12 12:49:48;;;;;;;3.50;1.37;;;28.50;42.10;;;;;;5003838;28;20978;-74
2023/07/12 12:52:38;;;;;;;2.30;1.10;;;28.60;42.80;;;;;;4994639;28;20648;-74
2023/07/12 12:55:11;;;;;;;1.57;0.90;;;28.50;43.00;;;;;;5005903;28;20941;-74
2023/07/12 12:58:01;;;;;;;1.30;1.20;;;28.50;44.50;;;;;;4999374;28;20830;-74
2023/07/12 13:00:32;;;;;;;1.43;1.07;;;28.50;43.10;;;;;;5016186;28;20816;-74
2023/07/12 13:03:07;;;;;;;1.10;0.70;;;28.60;42.90;;;;;;5001338;28;20538;-74
2023/07/12 13:05:38;;;;;;;1.30;0.80;;;28.50;42.90;;;;;;5001000;28;20996;-74
2023/07/12 13:08:18;;;;;;;1.33;0.83;;;28.60;43.40;;;;;;5007027;28;20469;-74
2023/07/12 13:10:50;;;;;;;1.37;0.80;;;28.60;43.20;;;;;;5006959;28;20532;-74